Main page
METAR-TAF:

METAR-TAF

Airports :

Istres, France

Istres-Le Tubé Air Base

latitude: 43-31N, longitude: 004-56E, elevation: 23 m

Current weather observation

The report was made 28 minutes ago, at 07:00 UTC
Wind 5 kt from the Northeast
Temperature 7°C
Humidity 87%
Pressure 1018 hPa
Visibility 10 km or more
no clouds below 1500 m and no cumulonimbus

METAR: LFMI 220700Z AUTO 05005KT CAVOK 07/05 Q1018 NOSIG

Time: 08:28 (07:28 UTC)

Forecast

The report was made 5 hours and 28 minutes ago, at 02:00 UTC
Forecast valid from 22 at 03 UTC to 23 at 03 UTC
Wind 5 kt from variable directions
Visibility 10 km or more
no clouds below 1500 m and no cumulonimbus
Temporary
from 22 at 03 UTC to 22 at 09 UTC
Wind 8 kt from the East/Northeast
Becoming
from 22 at 09 UTC to 22 at 12 UTC
Wind 13 kt from the East/Southeast
Temporary
from 22 at 09 UTC to 23 at 03 UTC
Broken clouds at a height of 3000 ft

TAF: LFMI 220200Z 2203/2303 VRB05KT CAVOK TEMPO 2203/2209 07008KT BECMG 2209/2212 12013KT TEMPO 2209/2303 BKN030

Weather observations and forecasts of more than 4000 airports (METAR and TAF reports).

The available stations are represented by yellow and red dots on the map.

Hover mouse over dot to see the name of the station.

Then click to see weather observations and forecasts.

To change the map : click on the green buttons with a black cross to zoom in, on the green button with a dash to zoom out, or on the green arrows for adjacent maps.


METAR-TAF: